createdAt,value
2019-04-21T00:01:48.956Z,16.20
2019-04-21T00:04:28.942Z,17.00
2019-04-21T00:07:02.971Z,17.15
2019-04-21T00:09:36.308Z,16.00
2019-04-21T00:12:02.574Z,15.70
2019-04-21T00:14:23.693Z,15.77
2019-04-21T00:16:50.311Z,16.40
2019-04-21T00:21:49.487Z,17.30
2019-04-21T00:24:29.024Z,18.00
2019-04-21T00:26:57.413Z,17.27
2019-04-21T00:29:33.865Z,17.57
2019-04-21T00:31:56.322Z,16.43
2019-04-21T00:34:11.158Z,16.60
2019-04-21T00:36:51.553Z,17.00
2019-04-21T00:39:36.990Z,18.55
2019-04-21T00:42:01.923Z,18.10
2019-04-21T00:44:22.446Z,17.00
2019-04-21T00:46:58.368Z,17.15
2019-04-21T00:49:27.022Z,19.15
2019-04-21T00:52:31.620Z,17.50
2019-04-21T00:55:05.914Z,17.10
2019-04-21T00:57:18.026Z,18.07
2019-04-21T00:59:46.486Z,17.70
2019-04-21T01:02:11.911Z,18.80
2019-04-21T01:04:42.840Z,17.80
2019-04-21T01:07:15.442Z,18.60
2019-04-21T01:09:36.930Z,18.90
2019-04-21T01:12:12.573Z,18.70
2019-04-21T01:14:49.982Z,17.70
2019-04-21T01:17:15.762Z,18.30
2019-04-21T01:19:37.337Z,18.20
2019-04-21T01:21:46.370Z,19.70
2019-04-21T01:24:20.815Z,19.70
2019-04-21T01:26:53.701Z,19.50
2019-04-21T01:29:27.706Z,18.90
2019-04-21T01:32:06.815Z,19.53
2019-04-21T01:34:37.693Z,19.00
2019-04-21T01:36:54.238Z,19.00
2019-04-21T01:39:34.894Z,19.10
2019-04-21T01:41:57.609Z,19.60
2019-04-21T01:44:30.892Z,18.25
2019-04-21T01:46:51.889Z,18.60
2019-04-21T01:49:16.999Z,19.30
2019-04-21T01:52:10.806Z,18.90
2019-04-21T01:54:48.076Z,18.30
2019-04-21T01:57:17.318Z,17.60
2019-04-21T01:59:44.835Z,19.10
2019-04-21T02:02:21.588Z,19.10
2019-04-21T02:04:47.377Z,18.07
2019-04-21T02:07:15.139Z,18.70
2019-04-21T02:09:43.327Z,18.50
2019-04-21T02:14:50.562Z,18.33
2019-04-21T02:17:14.659Z,18.37
2019-04-21T02:19:36.059Z,17.25
2019-04-21T02:22:06.373Z,18.53
2019-04-21T02:27:14.867Z,17.60
2019-04-21T02:29:40.933Z,17.03
2019-04-21T02:32:21.718Z,17.80
2019-04-21T02:39:49.179Z,17.97
2019-04-21T02:42:32.412Z,17.43
2019-04-21T02:44:43.436Z,18.50
2019-04-21T02:47:05.592Z,16.70
2019-04-21T02:49:56.897Z,17.30
2019-04-21T02:52:11.639Z,16.60
2019-04-21T02:57:09.167Z,17.40
2019-04-21T02:59:50.076Z,16.00
2019-04-21T03:02:34.897Z,16.97
2019-04-21T03:05:20.321Z,17.70
2019-04-21T03:10:18.245Z,17.43
2019-04-21T03:15:22.072Z,17.33
2019-04-21T03:23:02.016Z,16.85
2019-04-21T03:27:40.149Z,16.77
2019-04-21T03:30:14.249Z,15.03
2019-04-21T03:40:08.084Z,15.77
2019-04-21T03:45:06.642Z,14.80
2019-04-21T03:47:29.806Z,14.73
2019-04-21T04:00:44.928Z,14.90
2019-04-21T04:03:35.153Z,16.13
2019-04-21T04:08:49.995Z,15.37
2019-04-21T04:16:13.846Z,14.13
2019-04-21T04:26:19.108Z,13.60
2019-04-21T04:31:25.898Z,15.20
2019-04-21T04:34:04.529Z,15.10
2019-04-21T04:46:20.363Z,16.70
2019-04-21T04:51:19.336Z,16.60
2019-04-21T04:53:43.991Z,17.20
2019-04-21T04:56:47.595Z,17.70
2019-04-21T05:03:48.952Z,17.00
2019-04-21T05:09:03.392Z,15.63
2019-04-21T05:11:46.132Z,16.77
2019-04-21T05:13:55.466Z,15.80
2019-04-21T05:16:38.445Z,15.50
2019-04-21T05:21:31.439Z,14.75
2019-04-21T05:23:40.027Z,14.10
2019-04-21T05:26:02.549Z,13.93
2019-04-21T05:28:32.864Z,13.55
2019-04-21T05:31:18.426Z,13.80
2019-04-21T05:33:53.034Z,13.00
2019-04-21T05:36:52.034Z,13.27
2019-04-21T05:39:24.783Z,13.63
2019-04-21T05:41:47.477Z,12.53
2019-04-21T05:44:34.825Z,13.03
2019-04-21T05:47:09.626Z,12.27
2019-04-21T05:49:40.077Z,12.30
2019-04-21T05:52:04.074Z,13.03
2019-04-21T05:54:44.155Z,12.50
2019-04-21T05:57:20.573Z,13.27
2019-04-21T05:59:41.724Z,12.57
2019-04-21T06:02:21.001Z,11.80
2019-04-21T06:04:57.554Z,12.13
2019-04-21T06:07:12.182Z,13.20
2019-04-21T06:09:35.134Z,12.70
2019-04-21T06:12:02.925Z,13.30
2019-04-21T06:14:37.522Z,13.83
2019-04-21T06:17:01.519Z,13.40
2019-04-21T06:19:38.288Z,13.53
2019-04-21T06:22:03.565Z,13.53
2019-04-21T06:24:31.382Z,14.07
2019-04-21T06:27:09.507Z,14.03
2019-04-21T06:29:28.606Z,13.90
2019-04-21T06:34:45.604Z,16.90
2019-04-21T06:37:14.650Z,15.07
2019-04-21T06:39:48.221Z,15.63
2019-04-21T06:42:05.742Z,15.03
2019-04-21T06:44:33.767Z,15.67
2019-04-21T06:47:02.664Z,15.77
2019-04-21T06:49:25.061Z,16.17
2019-04-21T06:52:10.996Z,16.03
2019-04-21T06:54:32.356Z,17.23
2019-04-21T06:57:08.711Z,16.63
2019-04-21T06:59:29.411Z,16.70
2019-04-21T07:02:05.335Z,18.07
2019-04-21T07:04:26.753Z,18.57
2019-04-21T07:06:57.406Z,19.27
2019-04-21T07:09:25.476Z,18.90
2019-04-21T07:11:53.917Z,19.33
2019-04-21T07:19:30.709Z,20.23
2019-04-21T07:21:51.061Z,18.63
2019-04-21T07:26:51.556Z,19.83
2019-04-21T07:29:25.797Z,19.20
2019-04-21T07:31:57.182Z,19.30
2019-04-21T07:34:25.142Z,19.47
2019-04-21T07:36:51.473Z,18.70
2019-04-21T07:39:10.410Z,19.90
2019-04-21T07:41:42.151Z,19.40
2019-04-21T07:44:04.602Z,19.43
2019-04-21T07:46:33.894Z,18.73
2019-04-21T07:49:12.755Z,18.33
2019-04-21T07:52:18.929Z,19.50
2019-04-21T07:55:03.282Z,19.23
2019-04-21T07:57:13.002Z,19.17
2019-04-21T07:59:57.832Z,18.60
2019-04-21T08:02:15.939Z,18.67
2019-04-21T08:04:52.698Z,19.70
2019-04-21T08:07:15.100Z,19.53
2019-04-21T08:09:42.308Z,20.77
2019-04-21T08:12:04.084Z,20.13
2019-04-21T08:14:43.683Z,19.70
2019-04-21T08:17:14.230Z,20.07
2019-04-21T08:19:35.420Z,18.67
2019-04-21T08:22:12.555Z,19.20
2019-04-21T08:24:36.351Z,19.67
2019-04-21T08:27:19.066Z,19.17
2019-04-21T08:34:35.844Z,20.50
2019-04-21T15:11:09.722Z,13.50
2019-04-21T15:13:39.710Z,13.33
2019-04-21T15:16:09.148Z,13.63
2019-04-21T15:18:38.995Z,14.37
2019-04-21T15:21:08.181Z,14.27
2019-04-21T15:23:38.253Z,14.30
2019-04-21T15:26:08.299Z,14.30
2019-04-21T15:28:39.121Z,14.33
2019-04-21T15:31:15.222Z,13.03
2019-04-21T15:33:41.108Z,14.77
2019-04-21T15:36:11.596Z,14.47
2019-04-21T15:38:40.697Z,14.53
2019-04-21T15:41:10.847Z,15.27
2019-04-21T15:43:41.020Z,16.77
2019-04-21T15:46:10.988Z,16.63
2019-04-21T15:48:41.188Z,15.63
2019-04-21T15:51:11.088Z,15.50
2019-04-21T15:53:41.822Z,15.83
2019-04-21T15:56:15.570Z,15.13
2019-04-21T15:58:54.614Z,14.60
2019-04-21T16:01:40.888Z,16.40
2019-04-21T16:04:10.668Z,15.37
2019-04-21T16:06:41.300Z,15.47
2019-04-21T16:09:16.107Z,14.70
2019-04-21T16:11:42.138Z,14.23
2019-04-21T16:14:11.529Z,13.80
2019-04-21T16:16:41.205Z,14.60
2019-04-21T16:19:12.122Z,13.70
2019-04-21T16:21:44.411Z,13.80
2019-04-21T16:24:12.554Z,14.73
2019-04-21T16:26:42.673Z,15.03
2019-04-21T16:29:13.159Z,15.60
2019-04-21T16:31:42.751Z,14.93
2019-04-21T16:34:13.643Z,13.73
2019-04-21T16:36:43.550Z,15.00
2019-04-21T16:39:15.584Z,14.70
2019-04-21T16:41:52.095Z,13.30
2019-04-21T16:44:29.281Z,13.93
2019-04-21T16:47:05.749Z,14.33
2019-04-21T16:49:40.935Z,13.20
2019-04-21T16:52:23.918Z,13.97
2019-04-21T16:55:08.745Z,13.33
2019-04-21T16:58:22.137Z,13.97
2019-04-21T17:01:01.688Z,13.30
2019-04-21T17:03:26.561Z,13.70
2019-04-21T17:05:56.276Z,12.80
2019-04-21T17:08:26.166Z,12.73
2019-04-21T17:11:04.975Z,12.87
2019-04-21T17:13:27.221Z,13.13
2019-04-21T17:16:25.339Z,13.37
2019-04-21T17:18:43.539Z,12.90
2019-04-21T17:21:01.178Z,12.13
2019-04-21T17:23:29.447Z,12.03
2019-04-21T17:25:59.234Z,11.60
2019-04-21T17:28:29.891Z,11.63
2019-04-21T17:31:00.095Z,11.07
2019-04-21T17:33:33.757Z,10.73
2019-04-21T17:36:04.988Z,10.90
2019-04-21T17:38:34.566Z,10.37
2019-04-21T17:41:15.624Z,11.40
2019-04-21T17:43:34.703Z,10.77
2019-04-21T17:46:04.920Z,11.20
2019-04-21T17:48:32.466Z,11.07
2019-04-21T17:51:40.610Z,10.90
2019-04-21T17:54:33.811Z,10.97
2019-04-21T17:57:18.351Z,10.47
2019-04-21T18:02:10.977Z,10.50
2019-04-21T18:04:42.896Z,10.57
2019-04-21T18:07:26.516Z,10.07
2019-04-21T18:10:03.346Z,8.90
2019-04-21T18:12:24.988Z,9.27
2019-04-21T18:14:50.350Z,9.10
2019-04-21T18:17:08.612Z,8.90
2019-04-21T18:19:39.378Z,8.97
2019-04-21T18:22:43.200Z,9.20
2019-04-21T18:25:27.138Z,8.50
2019-04-21T18:27:42.666Z,8.37
2019-04-21T18:30:36.040Z,8.33
2019-04-21T18:33:05.936Z,8.33
2019-04-21T18:35:55.064Z,8.07
2019-04-21T18:38:53.085Z,7.93
2019-04-21T18:40:59.789Z,8.50
2019-04-21T18:46:42.611Z,8.40
2019-04-21T18:48:57.206Z,8.13
2019-04-21T18:52:02.244Z,7.73
2019-04-21T18:54:41.763Z,8.27
2019-04-21T18:57:04.441Z,8.07
2019-04-21T18:59:31.353Z,8.67
2019-04-21T19:01:59.951Z,8.37
2019-04-21T19:04:25.541Z,7.83
2019-04-21T19:07:06.706Z,7.50
2019-04-21T19:09:47.617Z,7.67
2019-04-21T19:12:08.728Z,9.10
2019-04-21T19:14:36.131Z,8.43
2019-04-21T19:17:27.602Z,7.67
2019-04-21T19:22:04.794Z,8.10
2019-04-21T19:24:59.431Z,8.67
2019-04-21T19:27:08.205Z,8.07
2019-04-21T19:34:18.783Z,8.20
2019-04-21T19:39:16.280Z,7.90
2019-04-21T19:41:52.069Z,8.90
2019-04-21T19:44:31.478Z,9.07
2019-04-21T19:46:55.537Z,9.13
2019-04-21T19:51:46.221Z,8.25
2019-04-21T19:54:15.546Z,9.27
2019-04-21T19:56:37.060Z,8.20
2019-04-21T19:59:03.504Z,8.63
2019-04-21T20:01:31.745Z,8.50
2019-04-21T20:04:01.024Z,9.00
2019-04-21T20:06:44.643Z,8.40
2019-04-21T20:09:19.939Z,8.47
2019-04-21T20:11:41.786Z,8.83
2019-04-21T20:14:37.653Z,9.00
2019-04-21T20:16:44.042Z,8.80
2019-04-21T20:18:57.434Z,8.85
2019-04-21T20:21:22.925Z,8.80
2019-04-21T20:23:51.721Z,9.40
2019-04-21T20:26:21.997Z,8.83
2019-04-21T20:28:59.287Z,9.03
2019-04-21T20:31:34.312Z,8.50
2019-04-21T20:34:06.267Z,9.60
2019-04-21T20:36:33.090Z,9.60
2019-04-21T20:38:52.961Z,8.83
2019-04-21T20:41:27.333Z,9.80
2019-04-21T20:44:01.045Z,9.90
2019-04-21T20:48:50.976Z,10.60
2019-04-21T20:51:30.001Z,10.70
2019-04-21T20:53:56.571Z,10.20
2019-04-21T20:56:17.138Z,9.17
2019-04-21T20:58:53.846Z,10.93
2019-04-21T21:03:47.870Z,11.50
2019-04-21T21:06:21.883Z,13.10
2019-04-21T21:08:50.002Z,11.00
2019-04-21T21:11:20.907Z,10.80
2019-04-21T21:13:49.225Z,13.27
2019-04-21T21:16:21.649Z,12.47
2019-04-21T21:19:08.185Z,11.43
2019-04-21T21:21:18.387Z,11.73
2019-04-21T21:23:42.828Z,12.23
2019-04-21T21:26:16.004Z,13.77
2019-04-21T21:28:40.250Z,12.87
2019-04-21T21:31:16.357Z,13.47
2019-04-21T21:33:53.519Z,12.57
2019-04-21T21:36:12.407Z,12.37
2019-04-21T21:38:39.296Z,12.43
2019-04-21T21:41:01.232Z,12.13
2019-04-21T21:43:23.246Z,13.43
2019-04-21T21:45:54.974Z,12.50
2019-04-21T21:48:31.717Z,12.77
2019-04-21T21:51:02.024Z,12.10
2019-04-21T21:53:25.427Z,12.20
2019-04-21T21:55:53.041Z,12.43
2019-04-21T21:58:29.872Z,12.50
2019-04-21T22:00:58.475Z,13.13
2019-04-21T22:03:31.774Z,13.33
2019-04-21T22:06:03.477Z,13.07
2019-04-21T22:08:28.305Z,13.87
2019-04-21T22:10:57.411Z,12.73
2019-04-21T22:13:35.984Z,12.83
2019-04-21T22:16:04.756Z,13.20
2019-04-21T22:18:45.463Z,12.90
2019-04-21T22:21:14.302Z,15.93
2019-04-21T22:23:39.989Z,14.13
2019-04-21T22:26:01.194Z,14.23
2019-04-21T22:28:31.603Z,14.40
2019-04-21T22:31:01.135Z,13.30
2019-04-21T22:33:38.673Z,14.70
2019-04-21T22:36:12.327Z,14.77
2019-04-21T22:38:46.162Z,14.57
2019-04-21T22:41:12.993Z,13.87
2019-04-21T22:43:40.622Z,14.25
2019-04-21T22:46:07.327Z,14.07
2019-04-21T22:48:38.714Z,14.33
2019-04-21T22:51:19.137Z,14.53
2019-04-21T22:53:43.669Z,16.43
2019-04-21T22:56:15.005Z,14.80
2019-04-21T22:58:44.044Z,15.10
2019-04-21T23:01:13.045Z,15.50
2019-04-21T23:03:49.193Z,15.07
2019-04-21T23:06:19.507Z,16.07
2019-04-21T23:08:45.799Z,15.40
2019-04-21T23:11:16.683Z,16.07
2019-04-21T23:13:54.982Z,16.20
2019-04-21T23:16:20.499Z,15.97
2019-04-21T23:19:09.742Z,17.33
2019-04-21T23:21:30.400Z,16.27
2019-04-21T23:24:11.568Z,17.03
2019-04-21T23:26:39.405Z,17.63
2019-04-21T23:29:15.498Z,16.40
2019-04-21T23:31:40.165Z,18.17
2019-04-21T23:33:54.665Z,18.47
2019-04-21T23:36:27.951Z,18.97
2019-04-21T23:38:56.760Z,19.00
2019-04-21T23:41:33.508Z,18.13
2019-04-21T23:44:04.519Z,17.53
2019-04-21T23:46:33.418Z,17.13
2019-04-21T23:49:16.334Z,18.60
2019-04-21T23:51:42.948Z,18.80
2019-04-21T23:54:01.806Z,18.00
2019-04-21T23:56:35.834Z,18.30
2019-04-21T23:59:05.136Z,19.33
